createdAt,value
2023-12-10T00:02:04.332Z,6.00
2023-12-10T00:04:32.050Z,6.50
2023-12-10T00:06:59.421Z,6.10
2023-12-10T00:09:27.522Z,7.10
2023-12-10T00:11:56.018Z,6.40
2023-12-10T00:14:25.448Z,6.40
2023-12-10T00:16:52.937Z,5.60
2023-12-10T00:19:20.085Z,6.40
2023-12-10T00:21:47.697Z,6.60
2023-12-10T00:24:14.956Z,7.60
2023-12-10T00:26:41.981Z,7.10
2023-12-10T00:29:08.995Z,6.00
2023-12-10T00:31:36.067Z,7.80
2023-12-10T00:34:03.208Z,8.40
2023-12-10T00:36:30.708Z,6.30
2023-12-10T00:38:57.851Z,7.00
2023-12-10T00:41:24.907Z,6.50
2023-12-10T00:43:52.209Z,5.50
2023-12-10T00:46:19.317Z,6.60
2023-12-10T00:48:46.807Z,6.90
2023-12-10T00:51:23.287Z,6.90
2023-12-10T00:53:50.886Z,6.00
2023-12-10T00:56:18.038Z,7.20
2023-12-10T00:58:45.117Z,5.90
2023-12-10T01:01:12.296Z,5.90
2023-12-10T01:03:39.516Z,5.60
2023-12-10T01:06:07.373Z,6.20
2023-12-10T01:08:34.704Z,5.50
2023-12-10T01:11:02.069Z,7.10
2023-12-10T01:13:29.277Z,7.50
2023-12-10T01:15:56.498Z,5.70
2023-12-10T01:18:23.642Z,7.20
2023-12-10T01:20:50.730Z,5.80
2023-12-10T01:23:17.878Z,6.40
2023-12-10T01:25:44.994Z,7.20
2023-12-10T01:28:12.270Z,7.00
2023-12-10T01:30:39.683Z,7.50
2023-12-10T01:33:06.927Z,6.00
2023-12-10T01:35:34.634Z,6.20
2023-12-10T01:38:02.963Z,8.20
2023-12-10T01:40:30.079Z,6.70
2023-12-10T01:42:57.723Z,8.40
2023-12-10T01:45:24.874Z,8.00
2023-12-10T01:47:53.183Z,6.70
2023-12-10T01:50:20.603Z,8.30
2023-12-10T01:52:50.577Z,6.60
2023-12-10T01:55:17.638Z,5.90
2023-12-10T01:57:44.766Z,9.00
2023-12-10T02:00:12.204Z,8.20
2023-12-10T02:02:40.703Z,6.50
2023-12-10T02:05:09.533Z,8.60
2023-12-10T02:07:36.856Z,9.00
2023-12-10T02:10:07.567Z,7.50
2023-12-10T02:12:35.371Z,6.30
2023-12-10T02:15:14.619Z,8.00
2023-12-10T02:17:42.649Z,9.50
2023-12-10T02:20:19.298Z,8.80
2023-12-10T02:23:12.961Z,8.70
2023-12-10T02:25:40.397Z,8.20
2023-12-10T02:28:08.701Z,10.20
2023-12-10T02:30:36.091Z,9.20
2023-12-10T02:33:03.763Z,11.50
2023-12-10T02:35:30.985Z,8.80
2023-12-10T02:37:58.064Z,8.50
2023-12-10T02:40:25.300Z,9.40
2023-12-10T02:42:52.469Z,9.20
2023-12-10T02:45:19.656Z,8.40
2023-12-10T02:47:46.886Z,9.90
2023-12-10T02:50:14.100Z,8.80
2023-12-10T02:52:41.274Z,7.00
2023-12-10T02:55:10.518Z,7.70
2023-12-10T02:57:38.143Z,8.30
2023-12-10T03:00:06.702Z,10.60
2023-12-10T03:02:34.061Z,7.30
2023-12-10T03:05:01.158Z,7.50
2023-12-10T03:07:28.297Z,8.50
2023-12-10T03:09:55.352Z,8.50
2023-12-10T03:12:22.379Z,7.70
2023-12-10T03:14:49.485Z,10.80
2023-12-10T03:17:16.645Z,10.30
2023-12-10T03:19:45.300Z,7.90
2023-12-10T03:22:12.607Z,7.00
2023-12-10T03:24:39.774Z,7.30
2023-12-10T03:27:06.842Z,7.90
2023-12-10T03:29:33.929Z,8.10
2023-12-10T03:32:00.964Z,7.70
2023-12-10T03:34:28.265Z,7.20
2023-12-10T03:36:55.494Z,8.70
2023-12-10T03:39:22.561Z,6.90
2023-12-10T03:41:50.536Z,7.90
2023-12-10T03:44:17.679Z,7.50
2023-12-10T03:46:44.761Z,7.70
2023-12-10T03:49:11.989Z,7.00
2023-12-10T03:51:39.245Z,7.40
2023-12-10T03:54:06.488Z,7.20
2023-12-10T03:56:33.504Z,9.30
2023-12-10T03:59:00.702Z,7.70
2023-12-10T04:01:28.521Z,8.40
2023-12-10T04:03:55.825Z,9.40
2023-12-10T04:06:23.017Z,6.80
2023-12-10T04:08:50.237Z,7.90
2023-12-10T04:11:24.361Z,8.00
2023-12-10T04:13:51.428Z,9.10
2023-12-10T04:16:28.083Z,8.00
2023-12-10T04:18:55.302Z,8.70
2023-12-10T04:21:23.016Z,8.40
2023-12-10T04:23:50.212Z,6.30
2023-12-10T04:26:17.633Z,8.80
2023-12-10T04:28:44.711Z,6.50
2023-12-10T04:31:11.931Z,8.60
2023-12-10T04:33:39.178Z,6.50
2023-12-10T04:36:06.591Z,7.50
2023-12-10T04:38:33.735Z,8.10
2023-12-10T04:41:01.032Z,6.90
2023-12-10T04:43:28.152Z,7.50
2023-12-10T04:45:55.538Z,7.80
2023-12-10T04:48:23.054Z,8.60
2023-12-10T04:50:50.235Z,8.70
2023-12-10T04:53:17.531Z,7.00
2023-12-10T04:55:44.697Z,8.20
2023-12-10T04:58:11.886Z,7.30
2023-12-10T05:00:39.049Z,7.60
2023-12-10T05:03:06.184Z,8.10
2023-12-10T05:05:33.219Z,9.90
2023-12-10T05:08:00.313Z,5.10
2023-12-10T05:10:28.946Z,7.50
2023-12-10T05:12:57.973Z,7.40
2023-12-10T05:15:25.152Z,8.30
2023-12-10T05:17:52.729Z,7.20
2023-12-10T05:20:19.851Z,7.00
2023-12-10T05:22:47.499Z,7.60
2023-12-10T05:25:14.578Z,10.10
2023-12-10T05:27:41.641Z,7.20
2023-12-10T05:30:08.976Z,8.60
2023-12-10T05:32:36.307Z,6.70
2023-12-10T05:35:04.156Z,6.20
2023-12-10T05:37:31.397Z,6.20
2023-12-10T05:39:58.455Z,8.10
2023-12-10T05:42:25.558Z,6.80
2023-12-10T05:44:52.833Z,10.70
2023-12-10T05:47:19.832Z,8.30
2023-12-10T05:49:46.974Z,11.10
2023-12-10T05:52:14.090Z,9.70
2023-12-10T05:54:41.221Z,12.70
2023-12-10T05:57:08.250Z,12.30
2023-12-10T05:59:35.324Z,11.30
2023-12-10T06:02:02.583Z,10.70
2023-12-10T06:04:29.904Z,9.90
2023-12-10T06:06:57.224Z,10.20
2023-12-10T06:09:24.316Z,10.00
2023-12-10T06:11:52.130Z,9.90
2023-12-10T06:14:19.211Z,10.30
2023-12-10T06:16:46.285Z,7.90
2023-12-10T06:19:13.294Z,5.80
2023-12-10T06:21:40.411Z,7.20
2023-12-10T06:24:07.790Z,8.30
2023-12-10T06:26:34.882Z,9.00
2023-12-10T06:29:02.020Z,7.90
2023-12-10T06:31:29.203Z,6.60
2023-12-10T06:33:56.427Z,6.80
2023-12-10T06:36:23.735Z,5.50
2023-12-10T06:38:50.840Z,7.30
2023-12-10T06:41:17.889Z,8.90
2023-12-10T06:43:45.043Z,7.80
2023-12-10T06:46:14.356Z,6.30
2023-12-10T06:48:41.937Z,7.30
2023-12-10T06:51:09.032Z,7.30
2023-12-10T06:53:36.190Z,6.40
2023-12-10T06:56:03.606Z,8.10
2023-12-10T06:58:30.708Z,7.20
2023-12-10T07:00:58.334Z,5.60
2023-12-10T07:03:25.652Z,7.10
2023-12-10T07:05:52.893Z,8.00
2023-12-10T07:08:19.999Z,7.00
2023-12-10T07:10:46.985Z,9.60
2023-12-10T07:13:14.778Z,9.00
2023-12-10T07:15:46.724Z,6.50
2023-12-10T07:18:13.881Z,8.00
2023-12-10T07:20:41.612Z,7.70
2023-12-10T07:23:08.676Z,7.80
2023-12-10T07:25:36.607Z,7.00
2023-12-10T07:28:04.298Z,5.70
2023-12-10T07:30:31.709Z,7.00
2023-12-10T07:32:58.779Z,9.40
2023-12-10T07:35:25.923Z,7.30
2023-12-10T07:37:53.360Z,6.00
2023-12-10T07:40:28.516Z,8.20
2023-12-10T07:42:56.895Z,7.10
2023-12-10T07:45:24.071Z,7.30
2023-12-10T07:47:51.274Z,6.20
2023-12-10T07:50:18.467Z,7.10
2023-12-10T07:52:45.611Z,9.80
2023-12-10T07:55:12.729Z,7.30
2023-12-10T07:57:39.885Z,5.80
2023-12-10T08:00:07.632Z,7.00
2023-12-10T08:02:40.704Z,7.20
2023-12-10T08:05:08.007Z,7.50
2023-12-10T08:07:35.116Z,5.80
2023-12-10T08:10:02.436Z,6.30
2023-12-10T08:12:30.059Z,5.30
2023-12-10T08:14:57.412Z,6.10
2023-12-10T08:17:24.617Z,5.00
2023-12-10T08:19:51.832Z,7.70
2023-12-10T08:22:18.876Z,3.90
2023-12-10T08:24:45.996Z,6.40
2023-12-10T08:27:13.952Z,5.30
2023-12-10T08:29:41.054Z,5.70
2023-12-10T08:32:08.168Z,7.00
2023-12-10T08:34:35.265Z,6.90
2023-12-10T08:37:02.704Z,6.90
2023-12-10T08:39:29.893Z,7.70
2023-12-10T08:41:57.376Z,7.50
2023-12-10T08:44:25.873Z,5.40
2023-12-10T08:46:54.378Z,7.30
2023-12-10T08:49:21.554Z,7.30
2023-12-10T08:51:48.674Z,7.30
2023-12-10T08:54:15.889Z,5.70
2023-12-10T08:56:43.168Z,4.90
2023-12-10T08:59:10.513Z,7.00
2023-12-10T09:01:37.577Z,6.10
2023-12-10T09:04:06.820Z,5.10
2023-12-10T09:06:34.077Z,5.70
2023-12-10T09:09:01.283Z,6.60
2023-12-10T09:11:28.397Z,5.60
2023-12-10T09:13:55.571Z,6.40
2023-12-10T09:16:24.223Z,6.10
2023-12-10T09:18:51.511Z,6.30
2023-12-10T09:21:18.644Z,5.70
2023-12-10T09:23:45.863Z,5.40
2023-12-10T09:26:12.967Z,6.50
2023-12-10T09:28:40.114Z,5.70
2023-12-10T09:31:07.124Z,6.10
2023-12-10T09:33:34.393Z,8.90
2023-12-10T09:36:01.596Z,4.90
2023-12-10T09:38:28.698Z,6.80
2023-12-10T09:40:55.775Z,6.20
2023-12-10T09:43:23.133Z,5.00
2023-12-10T09:45:50.428Z,5.20
2023-12-10T09:48:17.545Z,4.70
2023-12-10T09:50:44.654Z,6.10
2023-12-10T09:53:11.706Z,4.90
2023-12-10T09:55:39.442Z,5.90
2023-12-10T09:58:06.576Z,5.80
2023-12-10T10:00:33.849Z,4.80
2023-12-10T10:03:02.724Z,6.30
2023-12-10T10:05:30.322Z,3.90
2023-12-10T10:07:57.483Z,5.50
2023-12-10T10:10:26.614Z,5.00
2023-12-10T10:12:55.992Z,4.70
2023-12-10T10:15:30.203Z,8.90
2023-12-10T10:17:57.979Z,5.60
2023-12-10T10:20:25.638Z,6.60
2023-12-10T10:22:53.721Z,4.80
2023-12-10T10:25:20.817Z,5.00
2023-12-10T10:27:49.298Z,5.80
2023-12-10T10:30:16.560Z,5.90
2023-12-10T10:32:44.321Z,5.30
2023-12-10T10:35:12.962Z,5.90
2023-12-10T10:37:40.171Z,6.50
2023-12-10T10:42:54.625Z,4.40
2023-12-10T10:45:22.078Z,5.10
2023-12-10T10:47:49.493Z,4.70
2023-12-10T10:50:22.491Z,6.60
2023-12-10T10:52:54.248Z,5.20
2023-12-10T10:55:22.596Z,5.60
2023-12-10T10:57:50.459Z,5.10
2023-12-10T11:00:22.008Z,4.70
2023-12-10T11:02:51.546Z,6.20
2023-12-10T11:05:33.407Z,9.50
2023-12-10T11:08:01.420Z,7.10
2023-12-10T11:10:28.965Z,5.90
2023-12-10T11:12:58.086Z,7.20
2023-12-10T11:15:26.191Z,4.50
2023-12-10T11:17:56.323Z,4.90
2023-12-10T11:20:35.953Z,6.50
2023-12-10T11:23:05.536Z,4.50
2023-12-10T11:25:32.893Z,3.70
2023-12-10T11:28:03.345Z,5.70
2023-12-10T11:30:31.307Z,6.60
2023-12-10T11:32:58.951Z,6.60
2023-12-10T11:35:26.428Z,8.00
2023-12-10T11:37:53.809Z,6.40
2023-12-10T11:40:22.642Z,7.20
2023-12-10T11:42:49.969Z,4.90
2023-12-10T11:45:17.923Z,3.70
2023-12-10T11:47:46.011Z,6.40
2023-12-10T11:50:13.791Z,6.70
2023-12-10T11:52:41.052Z,8.40
2023-12-10T11:55:08.930Z,9.40
2023-12-10T11:57:43.072Z,7.30
2023-12-10T12:00:14.425Z,6.00
2023-12-10T12:02:46.078Z,6.00
2023-12-10T12:05:17.566Z,8.00
2023-12-10T12:07:45.690Z,6.40
2023-12-10T12:10:13.700Z,8.20
2023-12-10T12:12:43.012Z,5.70
2023-12-10T12:15:11.307Z,6.40
2023-12-10T12:17:38.915Z,6.30
2023-12-10T12:20:13.353Z,8.50
2023-12-10T12:22:41.461Z,9.40
2023-12-10T12:25:09.436Z,9.30
2023-12-10T12:27:36.628Z,7.70
2023-12-10T12:30:06.381Z,8.30
2023-12-10T12:32:35.292Z,8.70
2023-12-10T12:35:04.027Z,10.00
2023-12-10T12:37:31.909Z,7.90
2023-12-10T12:40:03.085Z,10.80
2023-12-10T12:42:32.494Z,8.70
2023-12-10T12:45:00.095Z,10.00
2023-12-10T12:47:28.076Z,8.10
2023-12-10T12:49:55.693Z,8.60
2023-12-10T12:52:23.273Z,9.20
2023-12-10T12:54:50.571Z,12.50
2023-12-10T12:57:18.398Z,9.90
2023-12-10T12:59:45.907Z,9.00
2023-12-10T13:02:13.395Z,10.40
2023-12-10T13:04:42.108Z,10.70
2023-12-10T13:07:10.078Z,10.60
2023-12-10T13:09:38.049Z,8.00
2023-12-10T13:12:06.375Z,8.70
2023-12-10T13:14:33.730Z,9.70
2023-12-10T13:17:01.974Z,8.80
2023-12-10T13:19:30.701Z,11.20
2023-12-10T13:21:58.220Z,10.00
2023-12-10T13:24:25.627Z,9.80
2023-12-10T13:26:53.272Z,11.40
2023-12-10T13:29:21.450Z,9.40
2023-12-10T13:31:48.625Z,8.50
2023-12-10T13:34:16.200Z,9.50
2023-12-10T13:36:43.751Z,13.30
2023-12-10T13:39:11.390Z,11.30
2023-12-10T13:41:38.838Z,9.70
2023-12-10T13:44:06.116Z,15.90
2023-12-10T13:46:34.651Z,13.00
2023-12-10T13:49:02.998Z,11.70
2023-12-10T13:51:30.539Z,10.60
2023-12-10T13:53:58.464Z,9.80
2023-12-10T13:56:25.961Z,11.00
2023-12-10T13:58:54.866Z,10.90
2023-12-10T14:01:22.347Z,10.50
2023-12-10T14:03:50.581Z,9.90
2023-12-10T14:06:18.074Z,9.50
2023-12-10T14:08:45.166Z,10.00
2023-12-10T14:11:12.172Z,13.30
2023-12-10T14:13:39.218Z,9.70
2023-12-10T14:16:06.551Z,10.10
2023-12-10T14:18:33.774Z,8.20
2023-12-10T14:21:00.896Z,12.10
2023-12-10T14:23:27.972Z,11.10
2023-12-10T14:25:55.093Z,9.20
2023-12-10T14:28:22.170Z,10.80
2023-12-10T14:30:49.350Z,10.20
2023-12-10T14:33:16.695Z,11.20
2023-12-10T14:35:43.769Z,9.20
2023-12-10T14:38:10.797Z,8.60
2023-12-10T14:40:38.596Z,8.60
2023-12-10T14:43:05.779Z,8.90
2023-12-10T14:45:32.897Z,9.40
2023-12-10T14:48:00.049Z,8.60
2023-12-10T14:50:27.321Z,7.90
2023-12-10T14:52:54.408Z,10.00
2023-12-10T14:55:24.947Z,7.10
2023-12-10T15:00:20.960Z,8.10
2023-12-10T15:02:48.113Z,9.00
2023-12-10T15:05:15.728Z,8.40
2023-12-10T15:07:45.779Z,9.50
2023-12-10T15:10:13.141Z,8.50
2023-12-10T15:12:40.541Z,10.70
2023-12-10T15:15:09.196Z,9.80
2023-12-10T15:17:36.520Z,9.60
2023-12-10T15:20:05.314Z,9.60
2023-12-10T15:22:32.622Z,11.30
2023-12-10T15:24:59.853Z,10.10
2023-12-10T15:27:27.180Z,11.40
2023-12-10T15:29:54.516Z,8.40
2023-12-10T15:32:21.708Z,10.20
2023-12-10T15:34:48.844Z,10.80
2023-12-10T15:37:16.350Z,11.40
2023-12-10T15:39:43.497Z,7.30
2023-12-10T15:42:10.640Z,7.90
2023-12-10T15:44:37.816Z,8.10
2023-12-10T15:47:04.998Z,8.00
2023-12-10T15:49:32.358Z,7.80
2023-12-10T15:52:01.424Z,8.50
2023-12-10T15:54:33.052Z,9.20
2023-12-10T15:57:02.525Z,9.30
2023-12-10T15:59:29.875Z,10.50
2023-12-10T16:01:58.222Z,9.40
2023-12-10T16:04:26.379Z,7.30
2023-12-10T16:06:56.597Z,8.90
2023-12-10T16:09:24.011Z,9.20
2023-12-10T16:11:51.594Z,10.20
2023-12-10T16:14:18.680Z,10.70
2023-12-10T16:16:45.801Z,10.50
2023-12-10T16:19:13.528Z,9.10
2023-12-10T16:21:42.191Z,10.50
2023-12-10T16:24:09.399Z,11.00
2023-12-10T16:26:39.484Z,10.30
2023-12-10T16:29:06.587Z,8.10
2023-12-10T16:31:34.280Z,6.60
2023-12-10T16:34:01.575Z,9.80
2023-12-10T16:36:28.860Z,13.00
2023-12-10T16:38:56.155Z,9.10
2023-12-10T16:41:23.509Z,13.30
2023-12-10T16:43:51.187Z,12.80
2023-12-10T16:46:18.430Z,8.80
2023-12-10T16:48:45.800Z,10.50
2023-12-10T16:51:13.049Z,13.80
2023-12-10T16:53:40.121Z,10.30
2023-12-10T16:56:07.667Z,10.00
2023-12-10T16:58:34.838Z,13.30
2023-12-10T17:01:02.245Z,9.10
2023-12-10T17:03:29.961Z,14.30
2023-12-10T17:05:57.318Z,11.10
2023-12-10T17:08:24.780Z,9.00
2023-12-10T17:10:51.905Z,11.60
2023-12-10T17:13:19.047Z,9.90
2023-12-10T17:15:48.314Z,9.50
2023-12-10T17:18:15.617Z,11.90
2023-12-10T17:20:42.836Z,11.70
2023-12-10T17:23:10.465Z,8.40
2023-12-10T17:25:38.873Z,11.20
2023-12-10T17:28:06.640Z,9.90
2023-12-10T17:30:33.761Z,10.90
2023-12-10T17:33:00.893Z,10.60
2023-12-10T17:35:28.426Z,12.30
2023-12-10T17:37:55.543Z,11.50
2023-12-10T17:40:22.590Z,10.80
2023-12-10T17:42:52.198Z,10.50
2023-12-10T17:45:21.070Z,9.50
2023-12-10T17:47:48.293Z,9.70
2023-12-10T17:50:17.846Z,12.70
2023-12-10T17:52:45.305Z,12.00
2023-12-10T17:55:12.659Z,9.50
2023-12-10T17:57:39.901Z,10.90
2023-12-10T18:00:07.616Z,8.90
2023-12-10T18:02:35.712Z,9.60
2023-12-10T18:05:03.042Z,9.50
2023-12-10T18:07:30.655Z,8.40
2023-12-10T18:09:57.964Z,9.30
2023-12-10T18:12:25.381Z,10.20
2023-12-10T18:14:52.668Z,9.20
2023-12-10T18:17:19.893Z,8.90
2023-12-10T18:19:47.081Z,13.10
2023-12-10T18:22:14.422Z,9.80
2023-12-10T18:24:41.558Z,9.20
2023-12-10T18:27:08.745Z,11.80
2023-12-10T18:29:35.874Z,11.40
2023-12-10T18:32:05.088Z,8.00
2023-12-10T18:34:32.247Z,9.50
2023-12-10T18:36:59.361Z,12.00
2023-12-10T18:39:26.825Z,11.40
2023-12-10T18:41:54.042Z,9.60
2023-12-10T18:44:23.188Z,11.20
2023-12-10T18:46:50.386Z,12.20
2023-12-10T18:49:17.681Z,10.00
2023-12-10T18:51:45.078Z,11.10
2023-12-10T18:54:12.601Z,12.20
2023-12-10T18:56:39.696Z,9.40
2023-12-10T18:59:06.906Z,9.70
2023-12-10T19:01:34.243Z,10.10
2023-12-10T19:04:01.508Z,11.00
2023-12-10T19:06:28.723Z,8.90
2023-12-10T19:08:55.818Z,9.10
2023-12-10T19:11:22.866Z,10.60
2023-12-10T19:13:49.886Z,8.00
2023-12-10T19:16:17.990Z,9.00
2023-12-10T19:18:45.535Z,11.00
2023-12-10T19:21:13.430Z,10.30
2023-12-10T19:23:40.527Z,9.80
2023-12-10T19:26:08.055Z,8.80
2023-12-10T19:28:35.183Z,7.70
2023-12-10T19:31:02.492Z,7.60
2023-12-10T19:33:29.811Z,8.10
2023-12-10T19:35:57.109Z,9.50
2023-12-10T19:38:24.312Z,8.30
2023-12-10T19:40:54.722Z,10.40
2023-12-10T19:43:22.762Z,8.00
2023-12-10T19:45:50.086Z,7.20
2023-12-10T19:48:17.895Z,9.00
2023-12-10T19:50:45.001Z,10.20
2023-12-10T19:53:12.155Z,8.30
2023-12-10T19:55:39.162Z,8.70
2023-12-10T19:58:07.042Z,8.30
2023-12-10T20:00:34.225Z,9.60
2023-12-10T20:03:01.469Z,7.20
2023-12-10T20:05:28.809Z,7.60
2023-12-10T20:07:56.037Z,8.60
2023-12-10T20:10:23.324Z,9.50
2023-12-10T20:12:50.432Z,7.60
2023-12-10T20:15:17.711Z,8.90
2023-12-10T20:17:44.989Z,9.00
2023-12-10T20:20:15.036Z,6.90
2023-12-10T20:22:42.115Z,10.50
2023-12-10T20:25:13.180Z,8.50
2023-12-10T20:27:48.105Z,8.50
2023-12-10T20:30:15.432Z,9.90
2023-12-10T20:32:42.536Z,7.50
2023-12-10T20:35:09.775Z,8.00
2023-12-10T20:37:36.920Z,8.40
2023-12-10T20:40:04.332Z,8.50
2023-12-10T20:42:31.846Z,10.10
2023-12-10T20:44:59.182Z,7.80
2023-12-10T20:47:26.449Z,8.90
2023-12-10T20:49:53.657Z,8.90
2023-12-10T20:52:22.118Z,9.30
2023-12-10T20:54:49.220Z,8.40
2023-12-10T20:57:16.426Z,10.60
2023-12-10T20:59:45.834Z,9.90
2023-12-10T21:02:12.896Z,6.40
2023-12-10T21:04:44.332Z,9.10
2023-12-10T21:07:11.682Z,7.80
2023-12-10T21:09:38.888Z,7.90
2023-12-10T21:12:06.281Z,7.60
2023-12-10T21:14:33.372Z,8.80
2023-12-10T21:17:01.677Z,8.30
2023-12-10T21:19:32.446Z,8.40
2023-12-10T21:21:59.932Z,10.60
2023-12-10T21:24:27.588Z,12.20
2023-12-10T21:26:54.781Z,9.50
2023-12-10T21:29:22.365Z,5.60
2023-12-10T21:31:49.512Z,7.70
2023-12-10T21:34:16.781Z,7.30
2023-12-10T21:36:43.954Z,9.00
2023-12-10T21:39:11.906Z,7.90
2023-12-10T21:41:38.941Z,8.20
2023-12-10T21:44:05.989Z,6.60
2023-12-10T21:46:36.442Z,7.30
2023-12-10T21:49:03.972Z,8.00
2023-12-10T21:51:31.240Z,7.80
2023-12-10T21:53:58.310Z,9.70
2023-12-10T21:56:25.408Z,10.10
2023-12-10T21:58:52.438Z,7.90
2023-12-10T22:01:21.462Z,8.80
2023-12-10T22:03:51.238Z,6.90
2023-12-10T22:06:18.753Z,7.90
2023-12-10T22:08:47.164Z,8.20
2023-12-10T22:11:15.769Z,7.60
2023-12-10T22:13:43.274Z,10.70
2023-12-10T22:16:10.447Z,8.90
2023-12-10T22:18:37.785Z,8.90
2023-12-10T22:21:07.787Z,5.60
2023-12-10T22:23:35.032Z,8.30
2023-12-10T22:26:02.727Z,8.60
2023-12-10T22:28:29.861Z,8.50
2023-12-10T22:30:56.948Z,6.80
2023-12-10T22:33:24.206Z,9.40
2023-12-10T22:35:51.352Z,5.90
2023-12-10T22:38:18.639Z,8.50
2023-12-10T22:40:45.818Z,8.40
2023-12-10T22:43:14.197Z,6.80
2023-12-10T22:45:41.329Z,7.30
2023-12-10T22:48:08.636Z,6.70
2023-12-10T22:50:36.938Z,8.10
2023-12-10T22:53:05.670Z,6.30
2023-12-10T22:55:32.843Z,6.70
2023-12-10T22:57:59.933Z,9.60
2023-12-10T23:01:09.507Z,6.60
2023-12-10T23:03:37.357Z,9.10
2023-12-10T23:10:29.101Z,5.70
2023-12-10T23:12:56.256Z,11.30
2023-12-10T23:15:24.050Z,8.00
2023-12-10T23:17:51.532Z,9.70
2023-12-10T23:20:18.855Z,8.30
2023-12-10T23:22:46.331Z,8.10
2023-12-10T23:25:14.809Z,9.60
2023-12-10T23:27:42.737Z,7.00
2023-12-10T23:30:11.043Z,7.20
2023-12-10T23:32:38.524Z,7.90
2023-12-10T23:35:06.769Z,6.90
2023-12-10T23:37:34.146Z,7.20
2023-12-10T23:40:01.499Z,9.50
2023-12-10T23:42:29.205Z,7.90
2023-12-10T23:44:56.668Z,6.30
2023-12-10T23:47:24.128Z,9.90
2023-12-10T23:49:51.824Z,10.40
2023-12-10T23:52:19.337Z,9.00
2023-12-10T23:54:46.599Z,9.70
2023-12-10T23:57:13.987Z,7.90
2023-12-10T23:59:42.919Z,7.60
